createdAt,value
2023-02-11T00:00:00.304Z,6.4
2023-02-11T00:05:00.217Z,6.4
2023-02-11T00:10:00.296Z,6.4
2023-02-11T00:15:00.185Z,6.4
2023-02-11T00:20:00.247Z,6.4
2023-02-11T00:25:00.232Z,6.4
2023-02-11T00:30:00.265Z,6.4
2023-02-11T00:35:00.184Z,6.4
2023-02-11T00:40:00.211Z,6.4
2023-02-11T00:45:00.237Z,6.4
2023-02-11T00:50:00.283Z,6.4
2023-02-11T00:55:00.157Z,6.4
2023-02-11T01:00:00.307Z,6.4
2023-02-11T01:05:00.316Z,6.4
2023-02-11T01:10:00.202Z,6.4
2023-02-11T01:15:00.228Z,6.4
2023-02-11T01:20:00.260Z,6.4
2023-02-11T01:25:00.207Z,6.4
2023-02-11T01:30:00.288Z,6.4
2023-02-11T01:35:00.197Z,6.4
2023-02-11T01:40:00.245Z,6.4
2023-02-11T01:45:00.229Z,6.5
2023-02-11T01:50:00.302Z,6.5
2023-02-11T01:55:01.272Z,6.5
2023-02-11T02:00:00.251Z,6.5
2023-02-11T02:05:00.223Z,6.5
2023-02-11T02:10:00.271Z,6.5
2023-02-11T02:15:00.207Z,6.5
2023-02-11T02:20:00.300Z,6.5
2023-02-11T02:25:00.187Z,6.5
2023-02-11T02:30:00.318Z,6.5
2023-02-11T02:35:00.132Z,6.5
2023-02-11T02:40:00.188Z,6.5
2023-02-11T02:45:00.266Z,6.5
2023-02-11T02:50:00.247Z,6.5
2023-02-11T02:55:00.208Z,6.5
2023-02-11T03:00:00.345Z,6.5
2023-02-11T03:05:00.217Z,6.5
2023-02-11T03:10:00.282Z,6.5
2023-02-11T03:15:00.226Z,6.5
2023-02-11T03:20:00.256Z,6.5
2023-02-11T03:25:00.181Z,6.4
2023-02-11T03:30:00.244Z,6.4
2023-02-11T03:35:00.140Z,6.4
2023-02-11T03:40:00.248Z,6.4
2023-02-11T03:45:00.253Z,6.4
2023-02-11T03:50:00.255Z,6.4
2023-02-11T03:55:00.145Z,6.4
2023-02-11T04:00:00.328Z,6.4
2023-02-11T04:05:00.183Z,6.4
2023-02-11T04:10:00.306Z,6.4
2023-02-11T04:15:00.256Z,6.3
2023-02-11T04:20:00.237Z,6.3
2023-02-11T04:25:00.142Z,6.3
2023-02-11T04:30:00.280Z,6.3
2023-02-11T04:35:00.198Z,6.3
2023-02-11T04:40:00.263Z,6.2
2023-02-11T04:45:00.331Z,6.2
2023-02-11T04:50:00.243Z,6.2
2023-02-11T04:55:00.177Z,6.2
2023-02-11T05:00:00.233Z,6.2
2023-02-11T05:05:00.234Z,6.2
2023-02-11T05:10:00.262Z,6.1
2023-02-11T05:15:00.212Z,6.1
2023-02-11T05:20:00.258Z,6.1
2023-02-11T05:25:00.149Z,6
2023-02-11T05:30:00.313Z,6
2023-02-11T05:35:00.175Z,6
2023-02-11T05:40:00.257Z,6
2023-02-11T05:45:00.158Z,5.9
2023-02-11T05:50:00.287Z,5.9
2023-02-11T05:55:00.140Z,5.9
2023-02-11T06:00:00.246Z,5.9
2023-02-11T06:05:00.291Z,5.9
2023-02-11T06:10:00.235Z,5.9
2023-02-11T06:15:00.210Z,5.9
2023-02-11T06:20:00.184Z,5.9
2023-02-11T06:25:01.995Z,5.9
2023-02-11T06:30:00.223Z,5.8
2023-02-11T06:35:00.195Z,5.9
2023-02-11T06:40:00.228Z,5.9
2023-02-11T06:45:00.138Z,5.9
2023-02-11T06:50:00.192Z,5.8
2023-02-11T06:55:00.223Z,5.9
2023-02-11T07:00:00.315Z,5.9
2023-02-11T07:05:00.268Z,5.9
2023-02-11T07:10:00.280Z,5.9
2023-02-11T07:15:00.188Z,5.9
2023-02-11T07:20:00.310Z,5.9
2023-02-11T07:25:00.247Z,5.9
2023-02-11T07:30:00.302Z,5.9
2023-02-11T07:35:00.237Z,5.9
2023-02-11T07:40:00.200Z,5.9
2023-02-11T07:45:00.144Z,5.9
2023-02-11T07:50:00.220Z,5.9
2023-02-11T07:55:00.195Z,5.9
2023-02-11T08:00:00.236Z,5.9
2023-02-11T08:05:00.138Z,5.9
2023-02-11T08:10:00.277Z,6
2023-02-11T08:15:00.213Z,6
2023-02-11T08:20:00.281Z,6
2023-02-11T08:25:00.230Z,6
2023-02-11T08:30:00.256Z,6
2023-02-11T08:35:00.211Z,6
2023-02-11T08:40:00.261Z,6.1
2023-02-11T08:45:00.258Z,6.1
2023-02-11T08:50:00.266Z,6.1
2023-02-11T08:55:00.194Z,6.1
2023-02-11T09:00:00.302Z,6.1
2023-02-11T09:05:00.138Z,6.2
2023-02-11T09:10:00.276Z,6.2
2023-02-11T09:15:00.205Z,6.2
2023-02-11T09:20:00.269Z,6.2
2023-02-11T09:25:00.199Z,6.3
2023-02-11T09:30:00.297Z,6.3
2023-02-11T09:35:00.226Z,6.3
2023-02-11T09:40:00.277Z,6.4
2023-02-11T09:45:00.269Z,6.4
2023-02-11T09:50:00.256Z,6.4
2023-02-11T09:55:00.225Z,6.5
2023-02-11T10:00:00.337Z,6.5
2023-02-11T10:05:00.158Z,6.6
2023-02-11T10:10:00.284Z,6.6
2023-02-11T10:15:00.224Z,6.7
2023-02-11T10:20:00.277Z,6.7
2023-02-11T10:25:00.299Z,6.7
2023-02-11T10:30:00.303Z,6.7
2023-02-11T10:35:00.194Z,6.8
2023-02-11T10:40:00.308Z,6.8
2023-02-11T10:45:00.190Z,6.9
2023-02-11T10:50:00.254Z,6.9
2023-02-11T10:55:00.254Z,6.9
2023-02-11T11:00:00.333Z,6.9
2023-02-11T11:05:00.285Z,7
2023-02-11T11:10:00.225Z,7
2023-02-11T11:15:00.260Z,7.1
2023-02-11T11:20:00.316Z,7.1
2023-02-11T11:25:00.251Z,7.1
2023-02-11T11:30:00.286Z,7.1
2023-02-11T11:35:00.183Z,7.2
2023-02-11T11:40:00.266Z,7.2
2023-02-11T11:45:00.155Z,7.2
2023-02-11T11:50:00.300Z,7.3
2023-02-11T11:55:00.192Z,7.3
2023-02-11T12:00:00.275Z,7.3
2023-02-11T12:05:00.244Z,7.4
2023-02-11T12:10:00.241Z,7.4
2023-02-11T12:15:00.141Z,7.4
2023-02-11T12:20:00.321Z,7.5
2023-02-11T12:25:00.185Z,7.6
2023-02-11T12:30:00.315Z,7.6
2023-02-11T12:35:00.192Z,7.6
2023-02-11T12:40:00.244Z,7.6
2023-02-11T12:45:00.180Z,7.7
2023-02-11T12:50:00.249Z,7.7
2023-02-11T12:55:00.131Z,7.7
2023-02-11T13:00:00.253Z,7.8
2023-02-11T13:05:00.228Z,7.8
2023-02-11T13:10:00.264Z,7.8
2023-02-11T13:15:00.206Z,7.8
2023-02-11T13:20:00.300Z,7.9
2023-02-11T13:25:00.240Z,7.9
2023-02-11T13:30:03.021Z,7.9
2023-02-11T13:35:00.289Z,7.9
2023-02-11T13:40:00.256Z,8
2023-02-11T13:45:00.170Z,8.1
2023-02-11T13:50:00.251Z,8.1
2023-02-11T13:55:00.139Z,8.2
2023-02-11T14:00:00.268Z,8.2
2023-02-11T14:05:00.148Z,8.4
2023-02-11T14:10:00.279Z,8.4
2023-02-11T14:15:02.644Z,8.4
2023-02-11T14:20:00.279Z,8.5
2023-02-11T14:25:00.169Z,8.5
2023-02-11T14:30:00.301Z,8.5
2023-02-11T14:35:00.146Z,8.5
2023-02-11T14:40:00.195Z,8.6
2023-02-11T14:45:00.152Z,8.6
2023-02-11T14:50:00.259Z,8.6
2023-02-11T14:55:00.138Z,8.6
2023-02-11T15:00:00.403Z,8.6
2023-02-11T15:05:00.240Z,8.6
2023-02-11T15:10:00.345Z,8.6
2023-02-11T15:15:00.215Z,8.6
2023-02-11T15:20:00.255Z,8.6
2023-02-11T15:25:00.247Z,8.6
2023-02-11T15:30:00.298Z,8.6
2023-02-11T15:35:00.144Z,8.6
2023-02-11T15:40:00.466Z,8.7
2023-02-11T15:45:00.260Z,8.7
2023-02-11T15:50:00.241Z,8.6
2023-02-11T15:55:00.139Z,8.7
2023-02-11T16:00:00.323Z,8.6
2023-02-11T16:05:00.218Z,8.6
2023-02-11T16:10:00.253Z,8.6
2023-02-11T16:15:00.198Z,8.6
2023-02-11T16:20:00.239Z,8.6
2023-02-11T16:25:00.189Z,8.6
2023-02-11T16:30:00.216Z,8.5
2023-02-11T16:35:00.228Z,8.5
2023-02-11T16:40:00.299Z,8.6
2023-02-11T16:45:00.208Z,8.5
2023-02-11T16:50:00.269Z,8.5
2023-02-11T16:55:00.291Z,8.5
2023-02-11T17:00:00.261Z,8.5
2023-02-11T17:05:00.230Z,8.5
2023-02-11T17:10:00.327Z,8.4
2023-02-11T17:15:00.206Z,8.4
2023-02-11T17:20:00.359Z,8.4
2023-02-11T17:25:00.226Z,8.4
2023-02-11T17:30:00.267Z,8.4
2023-02-11T17:35:00.147Z,8.4
2023-02-11T17:40:00.306Z,8.4
2023-02-11T17:45:00.205Z,8.4
2023-02-11T17:50:00.241Z,8.4
2023-02-11T17:55:00.223Z,8.4
2023-02-11T18:00:00.351Z,8.4
2023-02-11T18:05:00.338Z,8.4
2023-02-11T18:10:00.324Z,8.4
2023-02-11T18:15:00.214Z,8.4
2023-02-11T18:20:00.326Z,8.3
2023-02-11T18:25:00.206Z,8.3
2023-02-11T18:30:00.217Z,8.3
2023-02-11T18:35:00.207Z,8.3
2023-02-11T18:40:00.266Z,8.3
2023-02-11T18:45:00.136Z,8.3
2023-02-11T18:50:00.337Z,8.3
2023-02-11T18:55:00.242Z,8.2
2023-02-11T19:00:00.292Z,8.2
2023-02-11T19:05:00.196Z,8.3
2023-02-11T19:10:00.226Z,8.2
2023-02-11T19:15:00.146Z,8.2
2023-02-11T19:20:00.238Z,8.2
2023-02-11T19:25:00.243Z,8.2
2023-02-11T19:30:00.301Z,8.2
2023-02-11T19:35:00.245Z,8.2
2023-02-11T19:40:00.325Z,8.2
2023-02-11T19:45:00.191Z,8.2
2023-02-11T19:50:00.277Z,8.2
2023-02-11T19:55:00.142Z,8.2
2023-02-11T20:00:00.276Z,8.2
2023-02-11T20:05:00.176Z,8.2
2023-02-11T20:10:00.321Z,8.2
2023-02-11T20:15:00.143Z,8.2
2023-02-11T20:20:00.318Z,8.2
2023-02-11T20:25:00.179Z,8.2
2023-02-11T20:30:00.290Z,8.2
2023-02-11T20:35:00.198Z,8.2
2023-02-11T20:40:00.252Z,8.2
2023-02-11T20:45:00.186Z,8.2
2023-02-11T20:50:00.206Z,8.2
2023-02-11T20:55:00.180Z,8.2
2023-02-11T21:00:00.236Z,8.2
2023-02-11T21:05:00.142Z,8.2
2023-02-11T21:10:00.551Z,8.2
2023-02-11T21:15:00.137Z,8.1
2023-02-11T21:20:00.276Z,8.2
2023-02-11T21:25:00.293Z,8.1
2023-02-11T21:30:00.292Z,8.1
2023-02-11T21:35:02.306Z,8.1
2023-02-11T21:40:00.327Z,8.1
2023-02-11T21:45:00.217Z,8.1
2023-02-11T21:50:00.313Z,8.1
2023-02-11T21:55:00.247Z,8.1
2023-02-11T22:00:00.222Z,8.1
2023-02-11T22:05:00.241Z,8.1
2023-02-11T22:10:00.348Z,8.1
2023-02-11T22:15:00.166Z,8.1
2023-02-11T22:20:00.322Z,8.1
2023-02-11T22:25:00.251Z,8.1
2023-02-11T22:30:00.214Z,8.1
2023-02-11T22:35:00.204Z,8.1
2023-02-11T22:40:00.276Z,8.1
2023-02-11T22:45:00.228Z,8.1
2023-02-11T22:50:00.232Z,8.1
2023-02-11T22:55:00.138Z,8.1
2023-02-11T23:00:00.237Z,8.1
2023-02-11T23:05:00.205Z,8.1
2023-02-11T23:10:00.275Z,8.1
2023-02-11T23:15:00.138Z,8.1
2023-02-11T23:20:00.224Z,8.1
2023-02-11T23:25:00.220Z,8.1
2023-02-11T23:30:00.314Z,8.1
2023-02-11T23:35:00.198Z,8.1
2023-02-11T23:40:00.317Z,8.1
2023-02-11T23:45:00.283Z,8.1
2023-02-11T23:50:00.261Z,8.1
2023-02-11T23:55:00.219Z,8.1
